Time;durP1;ratioP1;P1;durP2;ratioP2;P2;SDS_P1;SDS_P2;PMS_P1;PMS_P2;Temp;Humidity;BMP_temperature;BMP_pressure;BME280_temperature;BME280_humidity;BME280_pressure;Samples;Min_cycle;Max_cycle;Signal;HPM_P1;HPM_P2
2021/12/31 00:01:33;;;;;;;11.88;3.60;;;12.70;99.90;;;;;;4865678;29;20044;-89
2021/12/31 00:03:58;;;;;;;10.57;3.28;;;12.80;99.90;;;;;;4864576;29;20053;-89
2021/12/31 00:06:24;;;;;;;12.45;3.40;;;13.60;99.90;;;;;;4865497;29;20063;-88
2021/12/31 00:08:49;;;;;;;10.13;3.40;;;13.00;99.90;;;;;;4865510;29;20040;-89
2021/12/31 00:11:15;;;;;;;12.17;3.50;;;12.80;99.90;;;;;;4864837;29;20096;-90
2021/12/31 00:13:49;;;;;;;11.33;3.20;;;12.80;99.90;;;;;;4864843;29;20041;-89
2021/12/31 00:16:14;;;;;;;15.15;3.58;;;12.90;99.90;;;;;;4865728;29;20041;-89
2021/12/31 00:18:50;;;;;;;11.95;3.90;;;12.70;99.90;;;;;;4865433;29;20056;-89
2021/12/31 00:21:15;;;;;;;13.68;3.72;;;12.80;99.90;;;;;;4865612;29;20508;-89
2021/12/31 00:23:43;;;;;;;13.20;3.45;;;13.10;99.90;;;;;;4865224;29;20041;-88
2021/12/31 00:26:09;;;;;;;15.45;3.70;;;12.90;99.90;;;;;;4864592;29;20489;-89
2021/12/31 00:28:35;;;;;;;11.10;3.40;;;13.00;99.90;;;;;;4864852;29;20068;-89
2021/12/31 00:31:01;;;;;;;12.25;3.80;;;12.90;99.90;;;;;;4864831;29;20450;-89
2021/12/31 00:33:27;;;;;;;12.40;3.85;;;13.90;99.90;;;;;;4865468;29;20048;-89
2021/12/31 00:35:53;;;;;;;14.98;3.92;;;13.30;99.90;;;;;;4866374;29;20514;-89
2021/12/31 00:38:19;;;;;;;13.38;3.40;;;12.90;99.90;;;;;;4875608;29;20064;-90
2021/12/31 00:40:44;;;;;;;11.77;3.60;;;13.00;99.90;;;;;;4866817;29;20180;-91
2021/12/31 00:43:11;;;;;;;13.35;3.42;;;12.90;99.90;;;;;;4864904;29;20508;-89
2021/12/31 00:45:39;;;;;;;10.88;3.72;;;12.90;99.90;;;;;;4864232;29;20549;-90
2021/12/31 00:48:05;;;;;;;12.55;3.50;;;12.90;99.90;;;;;;4864579;29;20049;-89
2021/12/31 00:50:31;;;;;;;13.15;3.88;;;12.90;99.90;;;;;;4864988;29;20507;-89
2021/12/31 00:52:57;;;;;;;11.70;3.88;;;13.00;99.90;;;;;;4863916;29;20045;-89
2021/12/31 00:55:25;;;;;;;11.52;3.72;;;12.90;99.90;;;;;;4864706;29;20387;-89
2021/12/31 00:57:51;;;;;;;14.93;4.13;;;12.90;99.90;;;;;;4864509;29;20053;-89
2021/12/31 01:00:17;;;;;;;12.13;4.13;;;13.00;99.90;;;;;;4863979;29;20048;-88
2021/12/31 01:02:46;;;;;;;11.80;3.75;;;12.90;99.90;;;;;;4864403;29;20080;-89
2021/12/31 01:05:12;;;;;;;13.55;4.38;;;12.90;99.90;;;;;;4864750;29;20049;-89
2021/12/31 01:07:38;;;;;;;11.32;4.43;;;12.90;99.90;;;;;;4880566;29;20076;-90
2021/12/31 01:10:05;;;;;;;11.55;4.28;;;12.90;99.90;;;;;;4875069;29;20045;-88
2021/12/31 01:12:32;;;;;;;11.10;3.90;;;12.90;99.90;;;;;;4877164;29;20041;-89
2021/12/31 01:15:05;;;;;;;10.75;3.85;;;13.50;99.90;;;;;;4882613;29;20041;-89
2021/12/31 01:20:17;;;;;;;11.73;3.88;;;12.90;99.90;;;;;;4864038;29;20060;-90
2021/12/31 01:22:43;;;;;;;13.85;4.13;;;13.60;99.90;;;;;;4864440;29;20052;-89
2021/12/31 01:25:09;;;;;;;12.15;3.65;;;13.00;99.90;;;;;;4864253;29;20063;-89
2021/12/31 01:27:36;;;;;;;12.77;3.97;;;13.00;99.90;;;;;;4863645;29;20136;-89
2021/12/31 01:30:05;;;;;;;14.73;4.28;;;13.00;99.90;;;;;;4863843;29;20117;-90
2021/12/31 01:32:31;;;;;;;13.15;3.70;;;13.00;99.90;;;;;;4864157;29;20405;-90
2021/12/31 01:34:57;;;;;;;13.35;3.80;;;13.10;99.90;;;;;;4863204;29;20524;-89
2021/12/31 01:37:23;;;;;;;12.73;4.25;;;13.10;99.90;;;;;;4863936;29;20073;-89
2021/12/31 01:39:48;;;;;;;13.05;3.95;;;13.10;99.90;;;;;;4863702;29;20059;-90
2021/12/31 01:42:14;;;;;;;11.00;3.83;;;13.10;99.90;;;;;;4863396;29;20136;-90
2021/12/31 01:44:45;;;;;;;12.73;3.60;;;13.20;99.90;;;;;;4864303;29;20068;-90
2021/12/31 01:47:15;;;;;;;13.50;4.00;;;13.10;99.90;;;;;;4864246;29;20053;-89
2021/12/31 01:49:54;;;;;;;13.95;4.30;;;13.10;99.90;;;;;;4863287;29;20089;-89
2021/12/31 01:52:20;;;;;;;11.80;4.25;;;13.10;99.90;;;;;;4864175;29;20379;-89
2021/12/31 01:54:49;;;;;;;12.63;4.10;;;13.10;99.90;;;;;;4863854;29;20102;-90
2021/12/31 01:57:14;;;;;;;12.63;4.10;;;13.10;99.90;;;;;;4862883;29;20052;-89
2021/12/31 01:59:41;;;;;;;10.70;4.35;;;13.10;99.90;;;;;;4863813;29;20060;-90
2021/12/31 02:02:08;;;;;;;12.48;4.25;;;13.10;99.90;;;;;;4863697;29;20049;-90
2021/12/31 02:04:37;;;;;;;11.63;3.85;;;13.10;99.90;;;;;;4862901;29;20441;-90
2021/12/31 02:07:03;;;;;;;14.18;4.38;;;13.10;99.90;;;;;;4862828;29;20079;-89
2021/12/31 02:09:34;;;;;;;12.77;4.60;;;13.10;99.90;;;;;;4863012;29;20426;-90
2021/12/31 02:11:59;;;;;;;14.27;4.68;;;13.10;99.90;;;;;;4880077;29;20045;-89
2021/12/31 02:14:25;;;;;;;13.95;4.90;;;13.30;99.90;;;;;;4863505;29;20508;-89
2021/12/31 02:16:51;;;;;;;13.45;5.20;;;13.10;99.90;;;;;;4862868;29;20037;-89
2021/12/31 02:19:26;;;;;;;14.85;5.45;;;13.10;99.90;;;;;;4863796;29;20051;-89
2021/12/31 02:21:52;;;;;;;11.30;4.80;;;13.10;99.90;;;;;;4863465;29;20508;-89
2021/12/31 02:24:19;;;;;;;12.27;5.35;;;13.10;99.90;;;;;;4862981;29;20048;-89
2021/12/31 02:26:45;;;;;;;14.02;5.20;;;13.10;99.90;;;;;;4865411;29;20110;-89
2021/12/31 02:29:10;;;;;;;12.20;5.38;;;13.10;99.90;;;;;;4877320;29;20060;-91
2021/12/31 02:31:36;;;;;;;11.60;5.65;;;13.40;99.90;;;;;;4864134;29;20409;-89
2021/12/31 02:34:02;;;;;;;12.63;5.53;;;13.10;99.90;;;;;;4862723;29;20041;-89
2021/12/31 02:36:27;;;;;;;11.10;5.60;;;13.10;99.90;;;;;;4862940;29;20057;-90
2021/12/31 02:38:53;;;;;;;13.00;6.05;;;13.10;99.90;;;;;;4862270;29;20172;-90
2021/12/31 02:41:19;;;;;;;11.73;5.65;;;13.10;99.90;;;;;;4864685;29;20137;-90
2021/12/31 02:43:45;;;;;;;11.77;5.85;;;13.10;99.90;;;;;;4881459;29;20056;-89
2021/12/31 02:46:10;;;;;;;11.93;5.65;;;13.10;99.90;;;;;;4866117;29;20462;-89
2021/12/31 02:48:36;;;;;;;11.20;6.05;;;13.10;99.90;;;;;;4863299;29;20044;-89
2021/12/31 02:51:03;;;;;;;11.98;5.40;;;13.20;99.90;;;;;;4879330;29;20144;-90
2021/12/31 02:53:37;;;;;;;11.85;5.20;;;13.20;99.90;;;;;;4862328;29;20089;-90
2021/12/31 02:56:09;;;;;;;11.30;5.75;;;13.20;99.90;;;;;;4862540;29;20057;-90
2021/12/31 02:58:36;;;;;;;13.30;5.65;;;13.20;99.90;;;;;;4879036;29;20053;-89
2021/12/31 03:01:04;;;;;;;13.93;5.20;;;13.30;99.90;;;;;;4854983;29;20033;-89
2021/12/31 03:03:32;;;;;;;12.90;5.28;;;14.10;99.90;;;;;;4844413;29;20049;-89
2021/12/31 03:05:58;;;;;;;13.93;5.68;;;13.30;99.90;;;;;;4841741;29;20046;-90
2021/12/31 03:08:35;;;;;;;11.90;5.55;;;13.30;99.90;;;;;;4844572;29;20062;-90
2021/12/31 03:11:05;;;;;;;11.38;5.53;;;13.40;99.90;;;;;;4843659;29;20525;-90
2021/12/31 03:13:33;;;;;;;11.45;5.70;;;13.20;99.90;;;;;;4843617;29;20052;-90
2021/12/31 03:16:07;;;;;;;13.02;6.28;;;13.30;99.90;;;;;;4844020;29;20045;-90
2021/12/31 03:18:33;;;;;;;11.35;5.97;;;13.30;99.90;;;;;;4843844;29;20486;-89
2021/12/31 03:21:06;;;;;;;12.45;6.30;;;13.40;99.90;;;;;;4843083;29;20045;-89
2021/12/31 03:23:32;;;;;;;11.45;5.78;;;13.40;99.90;;;;;;4844235;29;20509;-90
2021/12/31 03:25:58;;;;;;;11.10;5.70;;;13.90;99.90;;;;;;4843825;29;20057;-90
2021/12/31 03:28:24;;;;;;;12.77;6.22;;;13.50;99.90;;;;;;4843141;29;20057;-90
2021/12/31 03:30:50;;;;;;;10.93;5.82;;;13.40;99.90;;;;;;4843685;29;20057;-90
2021/12/31 03:33:16;;;;;;;11.30;5.53;;;13.40;99.90;;;;;;4843975;29;20076;-90
2021/12/31 03:35:42;;;;;;;11.48;5.40;;;13.40;99.90;;;;;;4843006;29;20064;-90
2021/12/31 03:38:08;;;;;;;11.45;5.40;;;13.50;99.90;;;;;;4843706;29;20486;-90
2021/12/31 03:40:34;;;;;;;10.07;5.55;;;13.50;99.90;;;;;;4844007;29;20053;-90
2021/12/31 03:43:03;;;;;;;11.73;5.63;;;13.40;99.90;;;;;;4842785;29;20518;-90
2021/12/31 03:45:29;;;;;;;11.27;5.05;;;13.50;99.90;;;;;;4843770;29;20089;-91
2021/12/31 03:47:54;;;;;;;11.63;5.65;;;13.50;99.90;;;;;;4842893;29;20077;-90
2021/12/31 03:50:20;;;;;;;11.85;5.65;;;13.50;99.90;;;;;;4843995;29;20056;-90
2021/12/31 03:52:45;;;;;;;11.00;5.25;;;13.60;99.90;;;;;;4843588;29;20046;-90
2021/12/31 03:55:11;;;;;;;11.93;5.18;;;13.60;99.90;;;;;;4842970;29;20160;-90
2021/12/31 03:57:38;;;;;;;10.60;5.57;;;13.60;99.90;;;;;;4843570;29;20054;-90
2021/12/31 04:00:08;;;;;;;11.18;5.35;;;13.60;99.90;;;;;;4843489;29;20061;-90
2021/12/31 04:02:35;;;;;;;10.63;5.55;;;13.50;99.90;;;;;;4843544;29;20611;-90
2021/12/31 04:05:00;;;;;;;13.50;5.50;;;13.50;99.90;;;;;;4843603;29;20417;-90
2021/12/31 04:07:26;;;;;;;11.85;5.15;;;13.60;99.90;;;;;;4843526;29;20053;-90
2021/12/31 04:09:52;;;;;;;10.75;5.55;;;13.50;99.90;;;;;;4842992;29;20053;-90
2021/12/31 04:12:17;;;;;;;12.35;5.53;;;13.60;99.90;;;;;;4844020;29;20041;-90
2021/12/31 04:14:43;;;;;;;11.75;5.78;;;13.50;99.90;;;;;;4860510;29;20030;-90
2021/12/31 04:17:09;;;;;;;11.90;5.43;;;13.50;99.90;;;;;;4854703;29;20073;-91
2021/12/31 04:19:35;;;;;;;9.60;5.35;;;13.50;99.90;;;;;;4847770;29;20056;-90
2021/12/31 04:22:00;;;;;;;12.30;5.55;;;13.50;99.90;;;;;;4856398;29;20029;-90
2021/12/31 04:24:30;;;;;;;11.25;5.75;;;13.50;99.90;;;;;;4842972;29;20106;-90
2021/12/31 04:26:56;;;;;;;12.80;6.13;;;13.50;99.90;;;;;;4843335;29;20050;-91
2021/12/31 04:29:21;;;;;;;10.70;5.80;;;13.50;99.90;;;;;;4843293;29;20056;-90
2021/12/31 04:31:47;;;;;;;12.45;6.30;;;13.50;99.90;;;;;;4845076;29;20054;-91
2021/12/31 04:34:13;;;;;;;11.07;5.65;;;13.50;99.90;;;;;;4847064;29;20056;-91
2021/12/31 04:36:38;;;;;;;12.88;5.80;;;13.50;99.90;;;;;;4846875;29;20105;-90
2021/12/31 04:39:04;;;;;;;11.10;5.60;;;13.50;99.90;;;;;;4846303;29;20520;-91
2021/12/31 04:41:30;;;;;;;11.52;6.00;;;13.40;99.90;;;;;;4847024;29;20105;-91
2021/12/31 04:43:55;;;;;;;10.75;5.70;;;13.40;99.90;;;;;;4846647;29;20143;-91
2021/12/31 04:46:24;;;;;;;12.00;5.90;;;13.40;99.90;;;;;;4846101;29;20049;-91
2021/12/31 04:48:53;;;;;;;12.30;5.40;;;13.40;99.90;;;;;;4846649;29;20066;-91
2021/12/31 04:51:31;;;;;;;13.52;6.07;;;14.20;99.90;;;;;;4846047;29;20045;-90
2021/12/31 04:53:56;;;;;;;10.45;5.45;;;13.10;99.90;;;;;;4846461;29;20066;-92
2021/12/31 04:56:22;;;;;;;11.38;5.40;;;13.20;99.90;;;;;;4846445;29;20045;-91
2021/12/31 04:58:59;;;;;;;11.90;5.43;;;14.20;99.90;;;;;;4845835;29;20053;-91
2021/12/31 05:01:28;;;;;;;10.52;4.88;;;12.40;99.90;;;;;;4845693;29;20090;-91
2021/12/31 05:03:54;;;;;;;11.60;5.45;;;13.50;99.90;;;;;;4846255;29;20493;-89
2021/12/31 05:06:19;;;;;;;10.20;4.95;;;13.20;99.90;;;;;;4844761;29;20060;-91
2021/12/31 05:08:45;;;;;;;11.77;5.10;;;13.50;99.90;;;;;;4845890;29;20041;-91
2021/12/31 05:11:10;;;;;;;10.48;4.68;;;13.50;99.90;;;;;;4846807;29;20049;-91
2021/12/31 05:13:42;;;;;;;11.13;4.78;;;13.30;99.90;;;;;;4845714;29;20406;-91
2021/12/31 05:16:11;;;;;;;9.13;4.40;;;13.20;99.90;;;;;;4846325;29;20038;-91
2021/12/31 05:18:39;;;;;;;10.73;4.90;;;13.20;99.90;;;;;;4846328;29;20085;-90
2021/12/31 05:21:14;;;;;;;11.68;5.03;;;13.20;99.90;;;;;;4845352;29;20042;-91
2021/12/31 05:23:40;;;;;;;12.02;4.45;;;13.10;99.90;;;;;;4846219;29;20060;-91
2021/12/31 05:26:14;;;;;;;10.48;4.72;;;14.10;99.90;;;;;;4845727;29;20509;-90
2021/12/31 05:28:40;;;;;;;9.23;4.40;;;13.70;99.90;;;;;;4844866;29;20514;-91
2021/12/31 05:31:06;;;;;;;10.18;4.60;;;13.10;99.90;;;;;;4846309;29;20083;-91
2021/12/31 05:33:33;;;;;;;10.38;4.45;;;13.10;99.90;;;;;;4845150;29;20049;-91
2021/12/31 05:36:00;;;;;;;10.68;4.45;;;13.10;99.90;;;;;;4845775;29;20379;-91
2021/12/31 05:38:26;;;;;;;10.23;4.38;;;13.10;99.90;;;;;;4845987;29;20053;-91
2021/12/31 05:40:52;;;;;;;10.50;4.05;;;13.60;99.90;;;;;;4844964;29;20133;-91
2021/12/31 05:43:18;;;;;;;10.52;4.13;;;13.10;99.90;;;;;;4844704;29;20057;-92
2021/12/31 05:45:43;;;;;;;10.95;4.00;;;13.10;99.90;;;;;;4848964;29;20045;-90
2021/12/31 05:48:09;;;;;;;11.00;3.97;;;13.00;99.90;;;;;;4867045;29;20074;-91
2021/12/31 05:50:35;;;;;;;11.85;4.10;;;13.10;99.90;;;;;;4850169;29;20068;-91
2021/12/31 05:53:01;;;;;;;11.32;3.70;;;13.10;99.90;;;;;;4845458;29;20072;-92
2021/12/31 05:55:27;;;;;;;9.57;3.80;;;13.10;99.90;;;;;;4844763;29;20045;-91
2021/12/31 05:57:55;;;;;;;9.60;3.55;;;13.10;99.90;;;;;;4845203;29;20110;-91
2021/12/31 06:00:21;;;;;;;10.18;3.70;;;13.10;99.90;;;;;;4845322;29;20049;-91
2021/12/31 06:02:47;;;;;;;9.85;3.58;;;12.90;99.90;;;;;;4844681;29;20073;-91
2021/12/31 06:05:13;;;;;;;9.18;3.30;;;13.10;99.90;;;;;;4845867;29;20050;-91
2021/12/31 06:07:39;;;;;;;9.73;3.47;;;13.10;99.90;;;;;;4846052;29;20094;-91
2021/12/31 06:10:05;;;;;;;9.05;3.53;;;13.70;99.90;;;;;;4847787;29;20054;-92
2021/12/31 06:12:33;;;;;;;9.07;3.35;;;13.10;99.90;;;;;;4863403;29;20083;-90
2021/12/31 06:15:08;;;;;;;12.57;4.10;;;13.10;99.90;;;;;;4862765;29;20125;-91
2021/12/31 06:17:34;;;;;;;8.80;3.53;;;13.10;99.90;;;;;;4845272;29;20068;-91
2021/12/31 06:20:06;;;;;;;7.75;3.38;;;13.00;99.90;;;;;;4844823;29;20056;-92
2021/12/31 06:22:38;;;;;;;9.40;3.33;;;13.00;99.90;;;;;;4845409;29;20057;-91
2021/12/31 06:25:06;;;;;;;11.70;3.83;;;12.70;99.90;;;;;;4845061;29;20071;-91
2021/12/31 06:27:41;;;;;;;10.05;3.55;;;13.00;99.90;;;;;;4845363;29;20493;-92
2021/12/31 06:30:10;;;;;;;9.65;3.60;;;13.10;99.90;;;;;;4844068;29;20517;-92
2021/12/31 06:32:37;;;;;;;10.30;3.65;;;13.00;99.90;;;;;;4845339;29;20049;-92
2021/12/31 06:35:12;;;;;;;8.75;3.67;;;13.80;99.90;;;;;;4845144;29;20486;-93
2021/12/31 06:37:44;;;;;;;9.25;3.42;;;12.80;99.90;;;;;;4845052;29;20049;-93
2021/12/31 06:40:11;;;;;;;9.93;3.88;;;12.30;99.90;;;;;;4845021;29;20050;-92
2021/12/31 06:42:40;;;;;;;10.40;3.57;;;13.00;99.90;;;;;;4845006;29;20049;-92
2021/12/31 06:45:07;;;;;;;9.73;3.40;;;13.00;99.90;;;;;;4844191;29;20045;-92
2021/12/31 06:47:39;;;;;;;10.00;3.80;;;13.00;99.90;;;;;;4844997;29;20045;-92
2021/12/31 06:50:05;;;;;;;9.35;3.45;;;13.10;99.90;;;;;;4844660;29;20144;-91
2021/12/31 06:52:42;;;;;;;9.98;3.47;;;12.90;99.90;;;;;;4844544;29;20053;-92
2021/12/31 06:55:10;;;;;;;9.82;3.45;;;13.00;99.90;;;;;;4844432;29;20042;-91
2021/12/31 06:57:42;;;;;;;10.23;3.45;;;12.90;99.90;;;;;;4845176;29;20140;-92
2021/12/31 07:00:09;;;;;;;10.82;3.50;;;13.00;99.90;;;;;;4844469;29;20398;-92
2021/12/31 07:02:44;;;;;;;8.65;3.53;;;12.90;99.90;;;;;;4844891;29;20057;-92
2021/12/31 07:05:09;;;;;;;8.52;3.10;;;13.30;99.90;;;;;;4844010;29;20045;-92
2021/12/31 07:07:44;;;;;;;8.68;3.70;;;13.70;99.90;;;;;;4844214;29;20060;-91
2021/12/31 07:10:16;;;;;;;11.13;4.05;;;12.80;99.90;;;;;;4844678;29;20347;-92
2021/12/31 07:12:45;;;;;;;9.93;3.60;;;12.90;99.90;;;;;;4843588;29;20105;-92
2021/12/31 07:15:16;;;;;;;10.30;3.70;;;13.10;99.90;;;;;;4844597;29;20506;-91
2021/12/31 07:17:42;;;;;;;9.88;3.60;;;12.60;99.90;;;;;;4844157;29;20081;-92
2021/12/31 07:20:18;;;;;;;10.23;4.10;;;12.90;99.90;;;;;;4866486;29;20109;-91
2021/12/31 07:22:46;;;;;;;11.30;3.95;;;12.80;99.90;;;;;;4853250;29;20052;-92
2021/12/31 07:25:19;;;;;;;11.55;4.05;;;12.70;99.90;;;;;;4844692;29;20554;-93
2021/12/31 07:27:50;;;;;;;9.82;3.80;;;12.70;99.90;;;;;;4859098;29;20076;-92
2021/12/31 07:30:18;;;;;;;9.43;3.75;;;12.60;99.90;;;;;;4843646;29;20117;-91
2021/12/31 07:32:43;;;;;;;9.90;3.80;;;12.70;99.90;;;;;;4844298;29;20049;-91
2021/12/31 07:35:09;;;;;;;10.25;3.97;;;12.60;99.90;;;;;;4844100;29;20483;-93
2021/12/31 07:37:38;;;;;;;9.57;3.67;;;12.70;99.90;;;;;;4844601;29;20105;-91
2021/12/31 07:40:12;;;;;;;9.52;3.95;;;12.60;99.90;;;;;;4843438;29;20484;-92
2021/12/31 07:42:40;;;;;;;9.10;4.00;;;12.60;99.90;;;;;;4844553;29;20057;-92
2021/12/31 07:45:07;;;;;;;9.60;4.13;;;13.10;99.90;;;;;;4844392;29;20398;-92
2021/12/31 07:47:39;;;;;;;9.45;4.03;;;12.60;99.90;;;;;;4843444;29;20061;-87
2021/12/31 07:50:05;;;;;;;11.07;3.83;;;12.50;99.90;;;;;;4843447;29;20057;-86
2021/12/31 07:52:30;;;;;;;11.32;4.00;;;12.50;99.90;;;;;;4860064;29;20058;-87
2021/12/31 07:54:56;;;;;;;9.35;3.97;;;12.50;99.90;;;;;;4842739;29;20077;-87
2021/12/31 07:57:21;;;;;;;11.70;4.40;;;12.50;99.90;;;;;;4843349;29;20053;-86
2021/12/31 07:59:47;;;;;;;11.88;4.07;;;12.40;99.90;;;;;;4843490;29;20109;-88
2021/12/31 08:02:12;;;;;;;9.40;4.07;;;13.10;99.90;;;;;;4847537;29;20060;-88
2021/12/31 08:04:38;;;;;;;10.00;4.10;;;12.40;99.90;;;;;;4864020;29;20113;-89
2021/12/31 08:07:03;;;;;;;10.23;4.13;;;12.40;99.90;;;;;;4846116;29;20053;-87
2021/12/31 08:09:29;;;;;;;12.18;4.15;;;12.40;99.90;;;;;;4846858;29;20159;-88
2021/12/31 08:11:55;;;;;;;9.02;3.78;;;12.40;99.90;;;;;;4847026;29;20050;-88
2021/12/31 08:14:20;;;;;;;9.82;4.28;;;12.30;99.90;;;;;;4863545;29;20062;-88
2021/12/31 08:16:46;;;;;;;9.98;4.03;;;12.30;99.90;;;;;;4846138;29;20128;-89
2021/12/31 08:19:11;;;;;;;10.07;3.97;;;12.30;99.90;;;;;;4847229;29;20106;-86
2021/12/31 08:21:37;;;;;;;9.25;3.88;;;12.30;99.90;;;;;;4846736;29;20102;-90
2021/12/31 08:24:03;;;;;;;8.93;3.65;;;12.40;99.90;;;;;;4846215;29;20050;-88
2021/12/31 08:26:28;;;;;;;11.25;4.30;;;12.40;99.90;;;;;;4847208;29;20056;-88
2021/12/31 08:28:55;;;;;;;9.85;4.30;;;12.40;99.90;;;;;;4846236;29;20057;-88
2021/12/31 08:31:21;;;;;;;11.38;4.18;;;12.40;99.90;;;;;;4846176;29;20437;-88
2021/12/31 08:33:46;;;;;;;9.47;4.40;;;12.40;99.90;;;;;;4846337;29;20128;-87
2021/12/31 08:36:12;;;;;;;9.75;4.47;;;12.50;99.90;;;;;;4845529;29;20131;-88
2021/12/31 08:38:38;;;;;;;11.00;4.00;;;12.90;99.90;;;;;;4846582;29;20045;-89
2021/12/31 08:41:04;;;;;;;9.70;4.07;;;12.60;99.90;;;;;;4846493;29;20045;-89
2021/12/31 08:43:29;;;;;;;10.63;4.00;;;13.50;99.90;;;;;;4845568;29;20064;-88
2021/12/31 08:45:55;;;;;;;10.40;3.97;;;12.60;99.90;;;;;;4846169;29;20061;-89
2021/12/31 08:48:21;;;;;;;9.38;3.80;;;12.70;99.90;;;;;;4846717;29;20049;-88
2021/12/31 08:50:46;;;;;;;10.77;4.30;;;12.70;99.90;;;;;;4846743;29;20144;-88
2021/12/31 08:53:12;;;;;;;9.55;3.90;;;12.80;99.90;;;;;;4863809;29;20046;-84
2021/12/31 08:55:38;;;;;;;11.32;5.40;;;12.70;99.90;;;;;;4846981;29;20057;-87
2021/12/31 08:58:05;;;;;;;9.65;4.10;;;12.80;99.90;;;;;;4845569;29;20061;-88
2021/12/31 09:00:31;;;;;;;9.15;4.10;;;12.70;99.90;;;;;;4845865;29;20048;-89
2021/12/31 09:02:56;;;;;;;10.80;5.35;;;12.70;99.90;;;;;;4845867;29;20045;-89
2021/12/31 09:05:22;;;;;;;10.70;4.82;;;12.70;99.90;;;;;;5107775;23;20054;-89
2021/12/31 09:07:49;;;;;;;10.65;5.90;;;13.20;99.90;;;;;;4827853;29;20058;-89
2021/12/31 09:10:16;;;;;;;10.80;5.15;;;12.80;99.90;;;;;;4828089;29;20411;-88
2021/12/31 09:12:44;;;;;;;11.50;4.47;;;12.80;99.90;;;;;;4827036;29;20053;-90
2021/12/31 09:15:20;;;;;;;9.93;4.35;;;12.80;99.90;;;;;;4842954;29;20414;-90
2021/12/31 09:17:47;;;;;;;12.90;7.75;;;13.00;99.90;;;;;;4826098;29;20487;-87
2021/12/31 09:20:13;;;;;;;9.35;4.60;;;12.60;99.90;;;;;;4826248;29;20050;-88
2021/12/31 09:22:45;;;;;;;10.68;4.88;;;14.10;99.90;;;;;;4827235;29;20078;-88
2021/12/31 09:25:15;;;;;;;11.27;5.20;;;13.70;99.90;;;;;;4826942;29;20038;-88
2021/12/31 09:27:50;;;;;;;10.07;3.63;;;12.80;99.90;;;;;;4826003;29;20249;-88
2021/12/31 09:30:18;;;;;;;9.88;4.40;;;12.60;99.90;;;;;;4826686;29;20046;-88
2021/12/31 09:32:47;;;;;;;9.13;3.95;;;12.80;99.90;;;;;;4826563;29;20049;-87
2021/12/31 09:35:15;;;;;;;10.10;4.05;;;12.90;99.90;;;;;;4827476;29;20388;-86
2021/12/31 09:37:47;;;;;;;15.25;9.60;;;13.40;99.90;;;;;;4827342;29;20050;-87
2021/12/31 09:40:18;;;;;;;19.27;15.60;;;12.60;99.90;;;;;;4826854;29;20553;-88
2021/12/31 09:42:59;;;;;;;10.73;4.00;;;13.10;99.90;;;;;;4826834;29;20041;-88
2021/12/31 09:45:27;;;;;;;14.48;9.07;;;12.80;99.90;;;;;;4828501;29;20581;-93
2021/12/31 09:47:59;;;;;;;13.15;6.88;;;12.80;99.90;;;;;;4830651;29;20398;-90
2021/12/31 09:50:43;;;;;;;19.52;14.63;;;12.10;99.90;;;;;;4827967;29;20057;-89
2021/12/31 09:53:13;;;;;;;17.08;10.05;;;12.90;99.90;;;;;;4850190;29;20506;-90
2021/12/31 09:55:54;;;;;;;11.00;4.25;;;12.90;99.90;;;;;;4841338;29;20094;-91
2021/12/31 09:58:24;;;;;;;10.02;4.38;;;12.90;99.90;;;;;;4825029;29;20054;-95
2021/12/31 10:00:53;;;;;;;15.82;12.00;;;13.20;99.90;;;;;;4819866;23;20062;-94
2021/12/31 10:07:08;;;;;;;12.02;5.70;;;12.90;99.90;;;;;;5226208;23;20049;-96
2021/12/31 10:14:41;;;;;;;23.08;16.08;;;12.90;99.90;;;;;;4766896;30;20498;-96
2021/12/31 10:17:42;;;;;;;11.07;5.20;;;12.20;99.90;;;;;;4750804;30;20051;-96
2021/12/31 10:20:10;;;;;;;13.75;8.73;;;12.90;99.90;;;;;;4775240;30;20059;-95
2021/12/31 10:22:42;;;;;;;11.55;6.35;;;12.70;99.90;;;;;;4775055;30;20420;-96
2021/12/31 10:31:27;;;;;;;;;;;;;;;;;;;;;
2021/12/31 10:57:44;;;;;;;11.48;5.18;;;12.80;99.90;;;;;;4842429;29;20058;-94
2021/12/31 11:00:46;;;;;;;;;;;;;;;;;;;;;
2021/12/31 12:08:17;;;;;;;13.55;6.07;;;12.70;99.90;;;;;;4902177;23;20076;-96
2021/12/31 12:10:43;;;;;;;13.13;5.70;;;12.70;99.90;;;;;;4825526;29;20455;-91
2021/12/31 12:13:29;;;;;;;14.98;5.80;;;12.90;99.90;;;;;;4825332;29;20137;-92
2021/12/31 12:16:07;;;;;;;12.68;5.68;;;13.30;99.90;;;;;;4824528;29;20057;-92
2021/12/31 12:19:19;;;;;;;13.00;6.20;;;12.70;99.90;;;;;;4841965;29;20048;-92
2021/12/31 12:21:52;;;;;;;12.93;6.47;;;12.90;99.90;;;;;;4825511;29;20076;-91
2021/12/31 12:24:23;;;;;;;10.95;5.95;;;12.60;99.90;;;;;;4826213;29;20084;-92
2021/12/31 12:27:25;;;;;;;12.73;6.47;;;12.70;99.90;;;;;;4826634;29;20078;-96
2021/12/31 12:29:52;;;;;;;13.30;6.77;;;12.80;99.90;;;;;;4825654;29;20452;-91
2021/12/31 12:35:23;;;;;;;11.52;6.38;;;12.70;99.90;;;;;;4825132;29;20414;-90
2021/12/31 12:38:12;;;;;;;12.80;6.55;;;13.40;99.90;;;;;;4832563;29;20559;-90
2021/12/31 12:40:57;;;;;;;15.27;6.53;;;12.70;99.90;;;;;;4835136;29;20494;-87
2021/12/31 12:43:26;;;;;;;13.70;6.55;;;12.80;99.90;;;;;;4845273;29;20073;-91
2021/12/31 12:45:57;;;;;;;13.93;7.45;;;12.70;99.90;;;;;;4832865;29;20128;-90
2021/12/31 12:48:39;;;;;;;45.75;38.25;;;12.60;99.90;;;;;;4829610;29;20054;-89
2021/12/31 12:51:11;;;;;;;29.55;23.55;;;12.50;99.90;;;;;;4832630;29;20134;-88
2021/12/31 12:53:46;;;;;;;18.85;10.85;;;12.70;99.90;;;;;;4835956;29;20050;-87
2021/12/31 12:56:17;;;;;;;22.95;16.17;;;12.10;99.90;;;;;;4836455;29;20041;-86
2021/12/31 12:58:48;;;;;;;19.65;13.23;;;12.00;99.90;;;;;;4849372;29;20049;-87
2021/12/31 13:01:14;;;;;;;25.95;20.08;;;11.90;99.90;;;;;;4836106;29;20116;-88
2021/12/31 13:03:54;;;;;;;26.98;21.05;;;12.30;99.90;;;;;;4835139;29;20141;-88
2021/12/31 13:06:24;;;;;;;23.13;15.23;;;11.80;99.90;;;;;;4846036;29;20056;-87
2021/12/31 13:09:06;;;;;;;22.27;14.95;;;11.70;99.90;;;;;;4846426;29;20046;-87
2021/12/31 13:11:34;;;;;;;23.60;17.35;;;11.70;99.90;;;;;;4862088;29;20042;-87
2021/12/31 13:14:03;;;;;;;22.35;13.77;;;11.60;99.90;;;;;;4845734;29;20045;-88
2021/12/31 13:16:29;;;;;;;22.63;16.40;;;11.60;99.90;;;;;;4845917;29;20157;-88
2021/12/31 13:18:57;;;;;;;19.20;11.83;;;11.80;99.90;;;;;;4842155;29;20038;-88
2021/12/31 13:21:23;;;;;;;26.60;20.50;;;11.60;99.90;;;;;;4859631;29;20049;-88
2021/12/31 13:23:53;;;;;;;27.27;19.60;;;11.60;99.90;;;;;;4863576;29;20129;-88
2021/12/31 13:26:24;;;;;;;21.53;12.97;;;11.60;99.90;;;;;;4848159;29;20064;-89
2021/12/31 13:28:50;;;;;;;25.40;14.90;;;11.70;99.90;;;;;;4849824;29;20073;-86
2021/12/31 13:31:33;;;;;;;22.98;13.40;;;11.70;99.90;;;;;;4845202;29;20057;-91
2021/12/31 13:34:17;;;;;;;31.33;22.80;;;11.60;99.90;;;;;;4829625;29;20042;-91
2021/12/31 13:36:53;;;;;;;24.45;16.85;;;11.70;99.90;;;;;;4835442;29;20061;-89
2021/12/31 13:39:45;;;;;;;19.73;12.60;;;11.70;99.90;;;;;;4833495;29;20411;-89
2021/12/31 13:42:12;;;;;;;20.38;11.80;;;11.60;99.90;;;;;;4832392;29;20057;-89
2021/12/31 13:44:40;;;;;;;19.63;12.32;;;10.80;99.90;;;;;;4832292;29;20093;-89
2021/12/31 13:47:17;;;;;;;23.05;15.60;;;11.90;99.90;;;;;;4851382;29;20153;-89
2021/12/31 13:50:12;;;;;;;29.77;20.25;;;11.70;99.90;;;;;;4848782;29;20054;-88
2021/12/31 13:52:50;;;;;;;23.92;15.50;;;11.80;99.90;;;;;;4851846;29;20109;-89
2021/12/31 13:55:33;;;;;;;21.70;15.25;;;11.70;99.90;;;;;;4837394;29;20132;-90
2021/12/31 13:58:09;;;;;;;26.75;14.13;;;11.70;99.90;;;;;;4833469;29;20105;-92
2021/12/31 14:01:02;;;;;;;20.05;14.52;;;12.60;99.90;;;;;;4837817;29;20058;-88
2021/12/31 14:03:34;;;;;;;20.58;13.18;;;11.60;99.90;;;;;;4842081;29;20141;-87
2021/12/31 14:06:13;;;;;;;19.92;14.77;;;11.70;99.90;;;;;;4846790;29;20113;-89
2021/12/31 14:08:42;;;;;;;20.13;12.30;;;11.70;99.90;;;;;;4854348;29;20120;-89
2021/12/31 14:11:09;;;;;;;22.30;12.57;;;11.70;99.90;;;;;;4826739;29;20148;-89
2021/12/31 14:13:43;;;;;;;17.98;11.50;;;11.70;99.90;;;;;;4815951;29;20095;-89
2021/12/31 14:16:12;;;;;;;;;;;11.70;99.90;;;;;;4808560;29;20054;-90
2021/12/31 14:18:38;;;;;;;19.02;11.55;;;11.70;99.90;;;;;;4825101;29;19924;-89
2021/12/31 14:21:10;;;;;;;21.52;14.02;;;11.70;99.90;;;;;;4806967;29;20368;-89
2021/12/31 14:23:46;;;;;;;22.35;14.95;;;12.30;99.90;;;;;;4809012;29;20403;-90
2021/12/31 14:26:17;;;;;;;22.10;13.10;;;11.50;99.90;;;;;;4808204;29;20500;-89
2021/12/31 14:28:47;;;;;;;73.00;46.45;;;11.50;99.90;;;;;;4807453;29;20058;-89
2021/12/31 14:31:18;;;;;;;21.67;13.35;;;11.70;99.90;;;;;;4808265;29;20108;-89
2021/12/31 14:33:47;;;;;;;22.25;12.70;;;11.00;99.90;;;;;;4808253;29;20090;-89
2021/12/31 14:36:19;;;;;;;19.67;11.90;;;11.50;99.90;;;;;;4807687;29;20050;-89
2021/12/31 14:38:48;;;;;;;24.23;13.43;;;11.50;99.90;;;;;;4807847;29;20559;-89
2021/12/31 14:41:22;;;;;;;19.55;11.70;;;11.70;99.90;;;;;;4808096;29;20082;-89